Time;durP1;ratioP1;P1;durP2;ratioP2;P2;SDS_P1;SDS_P2;PMS_P1;PMS_P2;Temp;Humidity;BMP_temperature;BMP_pressure;BME280_temperature;BME280_humidity;BME280_pressure;Samples;Min_cycle;Max_cycle;Signal;HPM_P1;HPM_P2
2021/09/26 00:00:20;;;;;;;12.40;9.50;;;19.30;99.90;;;;;;5040111;28;20459;-82
2021/09/26 00:02:46;;;;;;;11.53;8.70;;;19.30;99.90;;;;;;5046662;28;20617;-82
2021/09/26 00:05:15;;;;;;;9.30;8.20;;;19.30;99.90;;;;;;5046601;28;20514;-82
2021/09/26 00:07:42;;;;;;;16.97;9.57;;;19.30;99.90;;;;;;5047591;28;20473;-82
2021/09/26 00:10:11;;;;;;;10.57;9.47;;;19.40;99.90;;;;;;5047107;28;20437;-83
2021/09/26 00:12:38;;;;;;;16.10;9.30;;;19.40;99.90;;;;;;5047030;28;20702;-82
2021/09/26 00:15:09;;;;;;;14.07;9.43;;;19.40;99.90;;;;;;5030332;28;20497;-81
2021/09/26 00:17:36;;;;;;;10.97;8.57;;;19.40;99.90;;;;;;5040499;28;20462;-81
2021/09/26 00:20:03;;;;;;;9.50;8.47;;;19.30;99.90;;;;;;5048255;28;20456;-81
2021/09/26 00:22:32;;;;;;;11.60;8.93;;;19.40;99.90;;;;;;5046878;28;20555;-81
2021/09/26 00:24:59;;;;;;;11.60;8.43;;;19.40;99.90;;;;;;5046659;28;20551;-82
2021/09/26 00:27:26;;;;;;;10.97;8.60;;;19.40;99.90;;;;;;5045660;28;20491;-82
2021/09/26 00:29:52;;;;;;;13.53;8.60;;;19.50;99.90;;;;;;5045490;28;20540;-81
2021/09/26 00:32:20;;;;;;;9.80;8.20;;;19.40;99.90;;;;;;5045913;28;20484;-82
2021/09/26 00:34:47;;;;;;;13.40;9.30;;;19.40;99.90;;;;;;5046383;28;20442;-81
2021/09/26 00:37:14;;;;;;;9.90;8.23;;;19.30;99.90;;;;;;5046562;28;20457;-82
2021/09/26 00:39:42;;;;;;;12.37;8.57;;;19.30;99.90;;;;;;5046608;28;20547;-82
2021/09/26 00:42:09;;;;;;;12.50;8.87;;;19.30;99.90;;;;;;5046337;28;20463;-82
2021/09/26 00:44:37;;;;;;;10.63;8.70;;;19.30;99.90;;;;;;5045213;28;20452;-82
2021/09/26 00:47:04;;;;;;;10.83;8.13;;;19.20;99.90;;;;;;5046884;28;20508;-82
2021/09/26 00:49:31;;;;;;;11.53;8.80;;;19.20;99.90;;;;;;5046468;28;20428;-82
2021/09/26 00:51:58;;;;;;;10.17;8.37;;;19.30;99.90;;;;;;5045865;28;20475;-82
2021/09/26 00:54:26;;;;;;;10.03;8.13;;;19.30;99.90;;;;;;5046533;28;20479;-82
2021/09/26 00:56:54;;;;;;;9.50;8.37;;;19.30;99.90;;;;;;5046801;28;20814;-82
2021/09/26 00:59:22;;;;;;;13.43;8.30;;;19.30;99.90;;;;;;5046638;28;20460;-82
2021/09/26 01:01:50;;;;;;;10.03;7.77;;;19.30;99.90;;;;;;5045899;28;20465;-82
2021/09/26 01:04:18;;;;;;;12.80;9.10;;;19.40;99.90;;;;;;5047318;28;20434;-82
2021/09/26 01:06:52;;;;;;;9.90;7.63;;;19.40;99.90;;;;;;5046615;28;20519;-82
2021/09/26 01:09:25;;;;;;;11.30;8.43;;;19.40;99.90;;;;;;5047084;28;20465;-82
2021/09/26 01:11:59;;;;;;;10.07;7.50;;;19.40;99.90;;;;;;5040298;28;20444;-82
2021/09/26 01:14:31;;;;;;;10.17;8.30;;;19.40;99.90;;;;;;5046130;28;20516;-82
2021/09/26 01:17:08;;;;;;;10.23;8.13;;;19.50;99.90;;;;;;5045728;28;20426;-81
2021/09/26 01:20:20;;;;;;;8.70;7.80;;;19.40;99.90;;;;;;5045171;28;20440;-80
2021/09/26 01:23:12;;;;;;;11.50;8.90;;;19.40;99.90;;;;;;5024992;28;20455;-81
2021/09/26 01:25:57;;;;;;;11.87;8.47;;;19.40;99.90;;;;;;5044057;28;20469;-82
2021/09/26 01:28:52;;;;;;;10.93;7.50;;;19.40;99.90;;;;;;5044946;28;20523;-82
2021/09/26 01:31:25;;;;;;;10.83;8.33;;;19.40;99.90;;;;;;5044752;28;20462;-81
2021/09/26 01:33:59;;;;;;;9.27;7.60;;;19.50;99.90;;;;;;5045980;28;20525;-81
2021/09/26 01:36:32;;;;;;;9.67;7.93;;;19.60;99.90;;;;;;5045361;28;20445;-82
2021/09/26 01:39:03;;;;;;;10.77;8.40;;;19.60;99.90;;;;;;5046228;28;20452;-81
2021/09/26 01:41:36;;;;;;;9.10;8.10;;;19.50;99.90;;;;;;5038333;28;20469;-82
2021/09/26 01:44:08;;;;;;;10.43;7.80;;;19.50;99.90;;;;;;5045143;28;20532;-82
2021/09/26 01:46:40;;;;;;;9.10;8.10;;;19.50;99.90;;;;;;5045876;28;20514;-82
2021/09/26 01:49:13;;;;;;;9.30;7.70;;;19.50;99.90;;;;;;5045495;28;20437;-81
2021/09/26 01:51:43;;;;;;;12.47;8.13;;;19.50;99.90;;;;;;5044080;28;20527;-82
2021/09/26 01:54:14;;;;;;;10.30;7.57;;;19.50;99.90;;;;;;5043013;28;20523;-81
2021/09/26 01:56:43;;;;;;;10.40;8.87;;;19.40;99.90;;;;;;5036746;28;20459;-82
2021/09/26 01:59:12;;;;;;;10.77;8.77;;;19.40;99.90;;;;;;5042896;28;20432;-81
2021/09/26 02:01:42;;;;;;;10.90;7.63;;;19.40;99.90;;;;;;5030968;28;20671;-81
2021/09/26 02:04:11;;;;;;;11.97;8.23;;;19.40;99.90;;;;;;5026023;28;20448;-82
2021/09/26 02:06:39;;;;;;;10.40;7.80;;;19.40;99.90;;;;;;5026304;28;20558;-82
2021/09/26 02:09:06;;;;;;;9.40;8.00;;;19.40;99.90;;;;;;5032764;28;20460;-81
2021/09/26 02:11:34;;;;;;;8.23;7.10;;;19.30;99.90;;;;;;5045922;28;20578;-82
2021/09/26 02:14:02;;;;;;;9.97;7.50;;;19.30;99.90;;;;;;5045823;28;20483;-82
2021/09/26 02:16:29;;;;;;;10.50;7.87;;;19.30;99.90;;;;;;5045594;28;20460;-82
2021/09/26 02:18:59;;;;;;;10.60;8.70;;;19.30;99.90;;;;;;5045228;28;20504;-81
2021/09/26 02:21:27;;;;;;;13.30;8.80;;;19.30;99.90;;;;;;5040006;28;20506;-82
2021/09/26 02:23:54;;;;;;;10.40;7.40;;;19.30;99.90;;;;;;5037725;28;20515;-82
2021/09/26 02:26:22;;;;;;;11.80;8.60;;;19.30;99.90;;;;;;5029905;28;20459;-81
2021/09/26 02:28:49;;;;;;;8.70;7.10;;;19.30;99.90;;;;;;5049038;28;20459;-81
2021/09/26 02:31:16;;;;;;;11.10;8.53;;;19.30;99.90;;;;;;5048589;28;20534;-82
2021/09/26 02:33:44;;;;;;;10.60;7.93;;;19.30;99.90;;;;;;5049769;28;20461;-81
2021/09/26 02:36:14;;;;;;;8.50;7.47;;;19.30;99.90;;;;;;5050559;28;20472;-82
2021/09/26 02:38:42;;;;;;;11.53;7.27;;;19.30;99.90;;;;;;5050535;28;20511;-82
2021/09/26 02:41:15;;;;;;;10.87;7.90;;;19.20;99.90;;;;;;5038055;28;20481;-82
2021/09/26 02:43:48;;;;;;;11.40;9.63;;;19.20;99.90;;;;;;5049222;28;20501;-82
2021/09/26 02:46:23;;;;;;;10.93;8.30;;;19.10;99.90;;;;;;5048690;28;20555;-81
2021/09/26 02:48:51;;;;;;;13.13;7.73;;;19.00;99.90;;;;;;5048622;28;20428;-82
2021/09/26 02:51:20;;;;;;;10.97;8.80;;;19.00;99.90;;;;;;5046754;28;20476;-82
2021/09/26 02:53:48;;;;;;;12.37;7.30;;;18.90;99.90;;;;;;5047768;28;20449;-82
2021/09/26 02:56:15;;;;;;;13.30;7.73;;;18.90;99.90;;;;;;5048350;28;20892;-82
2021/09/26 02:58:42;;;;;;;8.97;7.93;;;18.80;99.90;;;;;;5030938;28;20439;-82
2021/09/26 03:01:09;;;;;;;9.80;7.73;;;18.80;99.90;;;;;;5032938;28;20506;-82
2021/09/26 03:03:36;;;;;;;11.10;8.20;;;18.70;99.90;;;;;;5049201;28;20459;-81
2021/09/26 03:06:02;;;;;;;12.23;7.97;;;18.70;99.90;;;;;;5047616;28;20483;-82
2021/09/26 03:08:31;;;;;;;9.23;7.70;;;18.60;99.90;;;;;;5044681;28;20427;-82
2021/09/26 03:11:00;;;;;;;11.57;8.50;;;18.60;99.90;;;;;;5036668;28;20830;-82
2021/09/26 03:13:28;;;;;;;12.10;9.20;;;18.60;99.90;;;;;;5036981;28;20456;-81
2021/09/26 03:15:55;;;;;;;8.77;7.43;;;18.60;99.90;;;;;;5023133;28;20461;-81
2021/09/26 03:18:22;;;;;;;12.20;8.40;;;18.60;99.90;;;;;;5020696;28;20460;-82
2021/09/26 03:20:49;;;;;;;10.90;8.97;;;18.60;99.90;;;;;;5026915;28;20459;-81
2021/09/26 03:23:16;;;;;;;10.53;7.87;;;18.50;99.90;;;;;;5037547;28;20491;-81
2021/09/26 03:25:44;;;;;;;13.57;8.60;;;18.50;99.90;;;;;;5036391;28;20494;-81
2021/09/26 03:28:11;;;;;;;14.23;8.00;;;18.60;99.90;;;;;;5036721;28;20484;-81
2021/09/26 03:30:38;;;;;;;11.80;9.07;;;18.50;99.90;;;;;;5035014;28;20432;-81
2021/09/26 03:33:04;;;;;;;10.53;7.87;;;18.50;99.90;;;;;;5036687;28;20491;-82
2021/09/26 03:35:31;;;;;;;17.13;8.97;;;18.40;99.90;;;;;;5036581;28;20457;-82
2021/09/26 03:37:58;;;;;;;11.20;8.17;;;18.40;99.90;;;;;;5036758;28;20443;-82
2021/09/26 03:40:25;;;;;;;11.67;8.37;;;18.40;99.90;;;;;;5036635;28;20462;-82
2021/09/26 03:42:53;;;;;;;10.80;7.80;;;18.50;99.90;;;;;;5035717;28;20470;-82
2021/09/26 03:45:20;;;;;;;11.63;8.10;;;18.50;99.90;;;;;;5035522;28;20533;-81
2021/09/26 03:47:47;;;;;;;10.20;7.60;;;18.50;99.90;;;;;;5036937;28;20563;-81
2021/09/26 03:50:14;;;;;;;10.80;8.17;;;18.40;99.90;;;;;;5036365;28;20428;-81
2021/09/26 03:52:48;;;;;;;10.50;7.30;;;18.30;99.90;;;;;;5036539;28;20485;-81
2021/09/26 03:55:15;;;;;;;10.43;7.60;;;18.10;99.90;;;;;;5036624;28;20859;-82
2021/09/26 03:57:43;;;;;;;10.43;8.07;;;18.10;99.90;;;;;;5040732;28;20902;-82
2021/09/26 04:00:14;;;;;;;12.77;8.37;;;18.10;99.90;;;;;;5036349;28;20453;-81
2021/09/26 04:02:41;;;;;;;13.40;7.53;;;18.10;99.90;;;;;;5037128;28;20835;-80
2021/09/26 04:05:10;;;;;;;10.80;8.53;;;18.10;99.90;;;;;;5040476;28;20426;-81
2021/09/26 04:07:37;;;;;;;13.40;9.13;;;18.00;99.90;;;;;;5041419;28;20467;-81
2021/09/26 04:10:06;;;;;;;10.63;8.27;;;18.00;99.90;;;;;;5039375;28;20642;-81
2021/09/26 04:12:33;;;;;;;11.50;8.20;;;18.00;99.90;;;;;;5032733;28;20969;-81
2021/09/26 04:14:59;;;;;;;11.33;8.63;;;18.00;99.90;;;;;;5036031;28;20773;-81
2021/09/26 04:17:28;;;;;;;12.20;8.97;;;18.00;99.90;;;;;;5036466;28;20527;-81
2021/09/26 04:19:54;;;;;;;11.83;9.00;;;17.90;99.90;;;;;;5033007;28;20463;-81
2021/09/26 04:22:21;;;;;;;11.93;9.50;;;17.90;99.90;;;;;;5028509;28;20858;-81
2021/09/26 04:24:48;;;;;;;10.80;7.87;;;17.80;99.90;;;;;;5035443;28;20452;-80
2021/09/26 04:27:15;;;;;;;11.10;9.10;;;17.80;99.90;;;;;;5015873;28;20479;-81
2021/09/26 04:29:41;;;;;;;11.10;8.47;;;17.80;99.90;;;;;;5019892;28;20519;-81
2021/09/26 04:32:09;;;;;;;11.57;8.30;;;17.80;99.90;;;;;;5040740;28;20567;-80
2021/09/26 04:34:37;;;;;;;14.47;9.20;;;17.80;99.90;;;;;;5037874;28;20469;-81
2021/09/26 04:37:04;;;;;;;11.77;8.07;;;17.80;99.90;;;;;;5035114;28;20512;-81
2021/09/26 04:39:31;;;;;;;12.53;8.60;;;17.80;99.90;;;;;;5035925;28;20457;-81
2021/09/26 04:41:58;;;;;;;10.13;8.67;;;17.70;99.90;;;;;;5035228;28;20476;-81
2021/09/26 04:46:50;;;;;;;10.80;8.37;;;17.60;99.90;;;;;;5034292;22;20835;-80
2021/09/26 04:49:17;;;;;;;13.00;8.43;;;17.70;99.90;;;;;;5016677;28;20215;-80
2021/09/26 04:51:45;;;;;;;11.80;8.80;;;17.70;99.90;;;;;;5016038;28;20458;-79
2021/09/26 04:54:12;;;;;;;11.00;8.90;;;17.70;99.90;;;;;;5021904;28;20478;-79
2021/09/26 04:56:39;;;;;;;13.80;8.53;;;17.60;99.90;;;;;;5025435;28;20560;-79
2021/09/26 04:59:05;;;;;;;9.97;8.40;;;17.60;99.90;;;;;;5017417;28;20500;-80
2021/09/26 05:01:32;;;;;;;9.83;8.83;;;17.60;99.90;;;;;;5017011;28;20437;-81
2021/09/26 05:03:59;;;;;;;9.67;8.20;;;17.70;99.90;;;;;;5000004;28;20423;-80
2021/09/26 05:06:26;;;;;;;10.03;7.97;;;17.60;99.90;;;;;;4996108;28;20960;-80
2021/09/26 05:08:54;;;;;;;10.93;9.07;;;17.60;99.90;;;;;;5016625;28;20565;-80
2021/09/26 05:11:21;;;;;;;10.30;7.87;;;17.50;99.90;;;;;;5032063;28;21039;-79
2021/09/26 05:13:48;;;;;;;11.47;8.07;;;17.60;99.90;;;;;;5007968;28;20623;-80
2021/09/26 05:16:15;;;;;;;12.20;8.70;;;17.50;99.90;;;;;;5016577;28;20482;-78
2021/09/26 05:18:41;;;;;;;12.70;8.40;;;17.50;99.90;;;;;;5017127;28;20510;-78
2021/09/26 05:21:08;;;;;;;9.77;8.37;;;17.50;99.90;;;;;;5016375;28;20477;-80
2021/09/26 05:23:35;;;;;;;10.50;8.00;;;17.50;99.90;;;;;;5025503;28;20451;-80
2021/09/26 05:26:03;;;;;;;12.83;8.67;;;17.50;99.90;;;;;;5035866;28;20473;-81
2021/09/26 05:28:30;;;;;;;10.67;8.10;;;17.40;99.90;;;;;;5036021;28;20487;-79
2021/09/26 05:30:57;;;;;;;13.60;9.90;;;17.50;99.90;;;;;;5022885;28;20426;-78
2021/09/26 05:33:25;;;;;;;10.97;8.80;;;17.40;99.90;;;;;;5016883;28;20459;-78
2021/09/26 05:35:52;;;;;;;12.27;8.47;;;17.40;99.90;;;;;;5016553;28;20482;-78
2021/09/26 05:38:19;;;;;;;11.00;8.70;;;17.40;99.90;;;;;;5028452;28;20483;-78
2021/09/26 05:40:46;;;;;;;9.37;8.27;;;17.50;99.90;;;;;;5022825;28;20785;-80
2021/09/26 05:43:14;;;;;;;15.43;8.43;;;17.60;99.90;;;;;;5015998;28;20461;-80
2021/09/26 05:45:41;;;;;;;10.77;9.67;;;17.50;99.90;;;;;;5015263;28;20482;-80
2021/09/26 05:48:08;;;;;;;15.43;9.10;;;17.40;99.90;;;;;;5016451;28;20553;-78
2021/09/26 05:50:34;;;;;;;11.70;8.83;;;17.30;99.90;;;;;;5015731;28;20824;-80
2021/09/26 05:53:01;;;;;;;10.10;8.67;;;17.30;99.90;;;;;;5015980;28;20452;-78
2021/09/26 05:55:28;;;;;;;10.97;9.87;;;17.30;99.90;;;;;;5015816;28;20461;-82
2021/09/26 05:57:55;;;;;;;11.20;9.57;;;17.20;99.90;;;;;;5015679;28;20451;-80
2021/09/26 06:00:26;;;;;;;12.37;9.73;;;17.20;99.90;;;;;;5020100;28;20440;-79
2021/09/26 06:02:53;;;;;;;12.37;9.50;;;17.20;99.90;;;;;;5019881;28;20453;-79
2021/09/26 06:05:21;;;;;;;10.73;8.70;;;17.30;99.90;;;;;;5019252;28;20972;-81
2021/09/26 06:07:48;;;;;;;12.03;9.20;;;17.30;99.90;;;;;;5030913;28;21018;-80
2021/09/26 06:10:16;;;;;;;12.20;8.83;;;17.30;99.90;;;;;;5019550;28;20769;-80
2021/09/26 06:12:43;;;;;;;16.33;8.73;;;17.40;99.90;;;;;;5019419;28;20466;-80
2021/09/26 06:15:11;;;;;;;11.10;8.90;;;17.50;99.90;;;;;;5019278;28;20453;-80
2021/09/26 06:17:39;;;;;;;12.80;9.33;;;17.50;99.90;;;;;;5019042;28;20482;-82
2021/09/26 06:20:06;;;;;;;10.83;8.10;;;17.60;99.90;;;;;;5019487;28;20427;-79
2021/09/26 06:22:33;;;;;;;12.50;9.07;;;17.70;99.90;;;;;;5018031;28;20434;-79
2021/09/26 06:25:00;;;;;;;13.97;9.03;;;17.70;99.90;;;;;;5018432;28;20486;-79
2021/09/26 06:27:27;;;;;;;13.03;8.60;;;17.80;99.90;;;;;;5019009;28;20463;-80
2021/09/26 06:29:54;;;;;;;10.20;8.60;;;17.90;99.90;;;;;;5019375;28;20437;-80
2021/09/26 06:32:22;;;;;;;16.83;8.23;;;17.90;99.90;;;;;;5005360;28;20439;-80
2021/09/26 06:34:50;;;;;;;11.30;8.70;;;17.90;99.90;;;;;;5023041;28;20935;-79
2021/09/26 06:37:17;;;;;;;12.20;8.70;;;17.90;99.90;;;;;;5021868;28;20536;-80
2021/09/26 06:39:44;;;;;;;15.23;9.10;;;17.90;99.90;;;;;;5020710;28;20456;-82
2021/09/26 06:42:11;;;;;;;13.83;9.10;;;17.90;99.90;;;;;;5019615;28;20432;-79
2021/09/26 06:44:37;;;;;;;14.60;9.60;;;18.00;99.90;;;;;;5018758;28;20487;-81
2021/09/26 06:47:05;;;;;;;14.87;8.70;;;18.10;99.90;;;;;;5019122;28;20408;-80
2021/09/26 06:49:31;;;;;;;12.10;9.17;;;18.20;99.90;;;;;;5025840;28;20427;-80
2021/09/26 06:52:00;;;;;;;10.63;8.43;;;18.40;99.90;;;;;;5020787;28;20532;-81
2021/09/26 06:54:27;;;;;;;12.03;9.90;;;18.40;99.90;;;;;;5018471;28;20985;-80
2021/09/26 06:56:53;;;;;;;13.00;9.30;;;18.40;99.90;;;;;;5017695;28;20540;-80
2021/09/26 06:59:20;;;;;;;13.10;8.80;;;18.40;99.90;;;;;;5018112;28;20537;-80
2021/09/26 07:01:47;;;;;;;10.40;9.30;;;18.40;99.90;;;;;;5017790;28;20411;-80
2021/09/26 07:04:14;;;;;;;12.10;9.20;;;18.50;99.90;;;;;;5027115;28;20461;-81
2021/09/26 07:06:41;;;;;;;11.37;7.93;;;18.70;99.90;;;;;;5038165;28;20454;-80
2021/09/26 07:09:09;;;;;;;12.67;8.90;;;18.80;99.90;;;;;;5017499;28;20496;-80
2021/09/26 07:11:36;;;;;;;20.33;8.63;;;18.90;99.90;;;;;;5016990;28;20457;-80
2021/09/26 07:14:03;;;;;;;14.83;8.70;;;18.90;99.90;;;;;;5018148;28;20454;-79
2021/09/26 07:16:30;;;;;;;11.17;8.20;;;18.90;99.90;;;;;;5001372;28;20480;-78
2021/09/26 07:18:57;;;;;;;11.03;8.43;;;18.90;99.90;;;;;;5030688;28;20455;-82
2021/09/26 07:21:24;;;;;;;10.60;8.83;;;19.10;99.90;;;;;;5022526;28;20465;-81
2021/09/26 07:23:51;;;;;;;13.60;8.70;;;19.20;99.90;;;;;;5017925;28;20479;-82
2021/09/26 07:26:20;;;;;;;10.60;8.43;;;19.40;99.90;;;;;;5017999;28;20472;-81
2021/09/26 07:28:46;;;;;;;11.07;8.87;;;19.50;99.90;;;;;;5016977;28;21002;-79
2021/09/26 07:31:15;;;;;;;10.70;8.53;;;19.60;99.90;;;;;;5016828;28;20904;-81
2021/09/26 07:33:42;;;;;;;11.63;8.80;;;19.70;99.90;;;;;;5032047;28;20553;-81
2021/09/26 07:36:09;;;;;;;15.47;8.90;;;19.80;99.90;;;;;;5029850;28;20441;-82
2021/09/26 07:38:36;;;;;;;10.40;8.90;;;19.90;99.90;;;;;;5018903;28;20442;-82
2021/09/26 07:41:03;;;;;;;11.10;9.33;;;20.00;99.90;;;;;;5017536;28;20450;-81
2021/09/26 07:43:31;;;;;;;11.93;9.33;;;20.00;99.90;;;;;;5017996;28;20542;-80
2021/09/26 07:45:58;;;;;;;11.43;8.80;;;20.00;99.90;;;;;;5017892;28;20500;-81
2021/09/26 07:48:25;;;;;;;15.00;9.10;;;20.20;99.90;;;;;;5034815;28;20495;-79
2021/09/26 07:50:52;;;;;;;11.87;8.87;;;20.20;99.90;;;;;;5028526;28;20457;-78
2021/09/26 07:53:19;;;;;;;11.90;8.20;;;20.30;99.90;;;;;;5019575;28;20529;-80
2021/09/26 07:55:48;;;;;;;9.77;8.40;;;20.40;99.90;;;;;;5017511;28;20476;-80
2021/09/26 07:58:15;;;;;;;15.07;8.60;;;20.60;99.90;;;;;;5018480;28;20530;-80
2021/09/26 08:00:44;;;;;;;12.07;9.13;;;20.60;99.90;;;;;;5018913;28;20447;-78
2021/09/26 08:03:11;;;;;;;17.00;9.47;;;20.70;99.90;;;;;;5017031;28;20954;-80
2021/09/26 08:05:38;;;;;;;9.90;8.70;;;20.70;99.90;;;;;;5017628;28;20574;-80
2021/09/26 08:08:05;;;;;;;11.20;8.60;;;20.80;99.90;;;;;;5016735;28;20490;-81
2021/09/26 08:10:32;;;;;;;11.53;8.30;;;20.80;99.90;;;;;;5017066;28;20440;-79
2021/09/26 08:12:59;;;;;;;10.73;8.33;;;20.90;99.90;;;;;;5018335;28;20486;-81
2021/09/26 08:15:26;;;;;;;9.87;8.30;;;20.90;99.90;;;;;;5020400;28;20470;-81
2021/09/26 08:17:54;;;;;;;9.93;7.80;;;21.00;99.90;;;;;;5033819;28;20513;-80
2021/09/26 08:20:21;;;;;;;15.70;8.37;;;21.10;99.90;;;;;;5023214;28;20489;-80
2021/09/26 08:22:48;;;;;;;11.13;8.00;;;21.20;99.90;;;;;;5024009;28;20461;-80
2021/09/26 08:25:15;;;;;;;11.30;8.67;;;21.30;99.90;;;;;;5027565;28;20469;-81
2021/09/26 08:27:43;;;;;;;13.60;7.93;;;21.40;99.90;;;;;;5021931;28;20461;-80
2021/09/26 08:30:11;;;;;;;9.70;7.50;;;21.50;99.90;;;;;;5017409;28;20532;-82
2021/09/26 08:32:39;;;;;;;9.90;8.03;;;21.50;99.90;;;;;;5017620;28;20469;-81
2021/09/26 08:35:08;;;;;;;10.20;8.10;;;21.70;99.90;;;;;;5017705;28;20561;-81
2021/09/26 08:37:35;;;;;;;12.87;8.20;;;21.70;99.90;;;;;;5017526;28;20974;-81
2021/09/26 08:40:02;;;;;;;11.70;8.30;;;21.70;99.90;;;;;;5017025;28;20505;-79
2021/09/26 08:42:29;;;;;;;9.70;7.70;;;21.80;99.90;;;;;;5017691;28;20533;-82
2021/09/26 08:44:57;;;;;;;12.30;8.07;;;21.90;99.90;;;;;;5026165;28;20535;-82
2021/09/26 08:47:24;;;;;;;13.30;8.73;;;22.00;99.90;;;;;;5037798;28;20528;-82
2021/09/26 08:49:52;;;;;;;8.73;7.20;;;22.00;99.90;;;;;;5038211;28;20489;-82
2021/09/26 08:52:20;;;;;;;10.90;7.70;;;22.20;99.90;;;;;;5023293;28;20530;-80
2021/09/26 08:54:47;;;;;;;11.10;8.20;;;22.30;99.90;;;;;;5025641;28;20471;-80
2021/09/26 09:00:43;;;;;;;11.80;8.47;;;22.60;99.90;;;;;;5031918;28;20451;-81
2021/09/26 09:03:11;;;;;;;15.00;9.73;;;22.70;99.90;;;;;;5010500;28;20484;-82
2021/09/26 09:05:39;;;;;;;10.77;8.17;;;22.80;99.90;;;;;;5020193;28;20470;-82
2021/09/26 09:08:10;;;;;;;12.53;8.60;;;22.80;99.90;;;;;;5019830;28;20486;-82
2021/09/26 09:10:47;;;;;;;11.57;8.50;;;22.80;99.90;;;;;;5017673;28;20823;-84
2021/09/26 09:13:17;;;;;;;11.57;8.43;;;22.80;99.90;;;;;;5019165;28;20454;-82
2021/09/26 09:15:53;;;;;;;11.70;8.40;;;22.70;99.90;;;;;;5017462;28;21013;-83
2021/09/26 09:18:21;;;;;;;13.07;8.43;;;22.70;99.90;;;;;;5018013;28;20449;-82
2021/09/26 09:20:48;;;;;;;16.57;8.13;;;22.50;99.90;;;;;;5021191;28;20831;-82
2021/09/26 09:23:19;;;;;;;11.27;8.07;;;22.50;99.90;;;;;;5016500;28;20513;-82
2021/09/26 09:25:48;;;;;;;15.43;8.83;;;22.50;99.90;;;;;;5016819;28;20478;-82
2021/09/26 09:28:17;;;;;;;10.70;8.30;;;22.60;99.90;;;;;;5026793;28;20921;-82
2021/09/26 09:30:46;;;;;;;12.10;9.13;;;22.60;99.90;;;;;;5030262;28;20454;-79
2021/09/26 09:33:14;;;;;;;14.40;8.50;;;22.60;99.90;;;;;;5028893;28;20470;-80
2021/09/26 09:35:44;;;;;;;10.60;9.17;;;22.70;99.90;;;;;;5016786;28;20855;-81
2021/09/26 09:38:12;;;;;;;10.70;9.20;;;22.60;99.90;;;;;;5016665;28;20518;-81
2021/09/26 09:40:40;;;;;;;11.37;9.03;;;22.50;99.90;;;;;;5009074;28;20545;-82
2021/09/26 09:43:08;;;;;;;14.50;8.77;;;22.30;99.90;;;;;;5023463;28;20510;-80
2021/09/26 09:45:36;;;;;;;11.60;10.40;;;22.30;99.90;;;;;;5048701;28;20492;-81
2021/09/26 09:48:10;;;;;;;11.77;10.57;;;22.30;99.90;;;;;;5036501;28;20466;-80
2021/09/26 09:50:50;;;;;;;14.40;10.17;;;22.20;99.90;;;;;;5004335;28;20759;-82
2021/09/26 09:53:26;;;;;;;11.90;10.10;;;22.20;99.90;;;;;;4999613;28;20439;-82
2021/09/26 09:56:04;;;;;;;13.07;10.00;;;22.20;99.90;;;;;;5012378;28;20556;-82
2021/09/26 09:58:35;;;;;;;11.37;10.20;;;22.20;99.90;;;;;;5019251;28;20438;-82
2021/09/26 10:01:03;;;;;;;14.13;10.60;;;22.10;99.90;;;;;;5018993;28;20497;-82
2021/09/26 10:03:35;;;;;;;13.03;11.57;;;22.10;99.90;;;;;;5017169;28;20455;-82
2021/09/26 10:06:02;;;;;;;14.00;10.73;;;22.00;99.90;;;;;;5017146;28;20482;-83
2021/09/26 10:08:33;;;;;;;13.63;11.17;;;22.00;99.90;;;;;;5020180;28;20506;-82
2021/09/26 10:11:07;;;;;;;16.20;12.13;;;22.00;99.90;;;;;;5039804;28;20445;-84
2021/09/26 10:13:36;;;;;;;15.13;10.53;;;21.90;99.90;;;;;;5039098;28;20472;-79
2021/09/26 10:16:05;;;;;;;15.37;11.27;;;21.60;99.90;;;;;;5022251;28;20466;-78
2021/09/26 10:18:33;;;;;;;13.57;11.10;;;21.60;99.90;;;;;;5021676;28;20446;-78
2021/09/26 10:21:02;;;;;;;13.70;11.70;;;21.40;99.90;;;;;;5030505;28;20525;-80
2021/09/26 10:23:29;;;;;;;12.67;11.37;;;21.40;99.90;;;;;;5042594;28;20473;-83
2021/09/26 10:25:57;;;;;;;14.40;12.20;;;21.30;99.90;;;;;;5024786;28;20513;-81
2021/09/26 10:28:27;;;;;;;12.03;10.63;;;21.20;99.90;;;;;;5017118;28;20878;-80
2021/09/26 10:30:55;;;;;;;16.80;11.20;;;21.20;99.90;;;;;;5016980;28;20500;-82
2021/09/26 10:33:23;;;;;;;13.47;11.50;;;21.20;99.90;;;;;;5021550;28;20514;-81
2021/09/26 10:35:52;;;;;;;15.00;11.10;;;21.10;99.90;;;;;;5018090;28;20549;-82
2021/09/26 10:38:20;;;;;;;12.00;10.70;;;21.20;99.90;;;;;;5037208;28;20521;-82
2021/09/26 10:40:47;;;;;;;13.67;11.50;;;21.20;99.90;;;;;;5031176;28;20458;-80
2021/09/26 10:43:21;;;;;;;12.33;10.80;;;21.30;99.90;;;;;;5016296;28;20768;-79
2021/09/26 10:45:50;;;;;;;13.93;11.67;;;21.40;99.90;;;;;;5033521;22;20505;-86
2021/09/26 10:48:17;;;;;;;14.17;11.20;;;21.50;99.90;;;;;;5024103;28;20474;-87
2021/09/26 10:50:44;;;;;;;12.47;10.30;;;21.50;99.90;;;;;;5022754;28;20458;-87
2021/09/26 10:53:13;;;;;;;12.90;10.83;;;21.50;99.90;;;;;;5021933;28;20443;-86
2021/09/26 10:55:41;;;;;;;11.53;10.10;;;21.50;99.90;;;;;;5024599;28;20478;-85
2021/09/26 10:58:21;;;;;;;11.87;10.47;;;21.60;99.90;;;;;;5029186;28;20453;-84
2021/09/26 11:00:56;;;;;;;12.87;11.43;;;21.60;99.90;;;;;;5029587;28;20526;-84
2021/09/26 11:03:33;;;;;;;12.40;11.10;;;21.70;99.90;;;;;;5026189;28;20438;-84
2021/09/26 11:06:00;;;;;;;13.73;11.30;;;21.50;99.90;;;;;;5021666;28;20471;-84
2021/09/26 11:08:43;;;;;;;13.50;12.10;;;21.50;99.90;;;;;;5020902;28;20454;-84
2021/09/26 11:11:35;;;;;;;12.93;11.43;;;21.60;99.90;;;;;;5021748;28;20450;-80
2021/09/26 11:14:03;;;;;;;13.73;11.37;;;21.50;99.90;;;;;;5023657;28;20458;-79
2021/09/26 11:16:57;;;;;;;11.47;10.27;;;21.40;99.90;;;;;;5025769;28;20480;-80
2021/09/26 11:19:27;;;;;;;13.50;10.23;;;21.30;99.90;;;;;;5021013;28;20449;-81
2021/09/26 11:22:00;;;;;;;14.50;11.20;;;21.30;99.90;;;;;;5022769;28;20485;-84
2021/09/26 11:24:43;;;;;;;14.17;10.13;;;21.30;99.90;;;;;;5026485;28;20441;-84
2021/09/26 11:27:31;;;;;;;12.40;10.60;;;21.20;99.90;;;;;;5019602;28;20641;-84
2021/09/26 11:30:28;;;;;;;12.67;10.50;;;21.20;99.90;;;;;;5038272;28;20548;-82
2021/09/26 11:33:05;;;;;;;11.70;9.43;;;21.30;99.90;;;;;;5040001;28;20465;-83
2021/09/26 11:35:35;;;;;;;10.50;9.40;;;21.10;99.90;;;;;;5041349;28;20476;-87
2021/09/26 11:38:05;;;;;;;11.40;9.90;;;21.20;99.90;;;;;;5019770;28;20454;-82
2021/09/26 11:41:07;;;;;;;11.00;9.87;;;21.20;99.90;;;;;;5020084;28;20883;-80
2021/09/26 11:43:40;;;;;;;11.73;10.50;;;21.20;99.90;;;;;;5022876;28;20935;-82
2021/09/26 11:46:23;;;;;;;11.93;10.03;;;21.20;99.90;;;;;;5027497;28;20483;-82
2021/09/26 11:48:54;;;;;;;11.23;10.13;;;21.30;99.90;;;;;;5036901;28;20461;-84
2021/09/26 11:51:22;;;;;;;12.87;11.23;;;21.20;99.90;;;;;;5047117;28;20515;-81
2021/09/26 11:53:49;;;;;;;13.60;11.10;;;21.20;99.90;;;;;;5022266;28;20443;-81
2021/09/26 11:56:21;;;;;;;14.47;10.70;;;21.30;99.90;;;;;;5028164;28;20493;-82
2021/09/26 11:58:52;;;;;;;11.23;10.03;;;21.30;99.90;;;;;;5043006;28;20442;-83
2021/09/26 12:01:26;;;;;;;12.17;10.87;;;21.30;99.90;;;;;;5029472;28;20912;-82
2021/09/26 12:04:16;;;;;;;12.17;10.47;;;21.30;99.90;;;;;;5024005;28;20464;-82
2021/09/26 12:06:45;;;;;;;14.47;11.40;;;21.40;99.90;;;;;;5031015;28;20541;-82
2021/09/26 12:09:16;;;;;;;11.33;9.67;;;21.50;99.90;;;;;;5028484;28;20798;-83
2021/09/26 12:11:48;;;;;;;11.70;10.27;;;21.50;99.90;;;;;;5034944;28;20446;-82
2021/09/26 12:14:23;;;;;;;13.17;11.07;;;21.70;99.90;;;;;;5041395;28;20509;-83
2021/09/26 12:16:50;;;;;;;13.20;10.87;;;21.80;99.90;;;;;;5027011;28;20484;-81
2021/09/26 12:19:18;;;;;;;11.97;10.67;;;21.90;99.90;;;;;;5018804;28;20442;-86
2021/09/26 12:21:45;;;;;;;11.80;10.60;;;22.10;99.90;;;;;;5022041;28;20455;-87
2021/09/26 12:24:17;;;;;;;14.50;9.97;;;22.20;99.90;;;;;;5021574;28;20461;-87
2021/09/26 12:26:48;;;;;;;10.63;9.07;;;22.20;99.90;;;;;;5038995;28;20496;-87
2021/09/26 12:29:19;;;;;;;11.83;10.57;;;22.30;99.90;;;;;;5040725;28;20477;-87
2021/09/26 12:31:51;;;;;;;11.63;10.30;;;22.40;99.90;;;;;;5041004;28;20458;-87
2021/09/26 12:34:28;;;;;;;10.60;9.47;;;22.40;99.90;;;;;;5012433;28;20891;-87
2021/09/26 12:36:56;;;;;;;12.57;10.40;;;22.40;99.90;;;;;;5023190;28;20897;-87
2021/09/26 12:39:27;;;;;;;15.37;12.10;;;22.50;99.90;;;;;;5026169;28;20446;-85
2021/09/26 12:41:56;;;;;;;11.20;9.80;;;22.50;99.90;;;;;;5034352;28;20473;-87
2021/09/26 12:44:33;;;;;;;12.33;10.17;;;22.60;99.90;;;;;;5043577;28;20514;-86
2021/09/26 12:47:04;;;;;;;12.53;9.70;;;22.80;99.90;;;;;;5033972;28;20592;-85
2021/09/26 12:49:34;;;;;;;11.17;8.83;;;22.80;99.90;;;;;;5042645;28;20480;-86
2021/09/26 12:52:10;;;;;;;11.00;8.90;;;22.80;99.90;;;;;;5025738;28;20508;-86